Time;durP1;ratioP1;P1;durP2;ratioP2;P2;SDS_P1;SDS_P2;PMS_P1;PMS_P2;Temp;Humidity;BMP_temperature;BMP_pressure;BME280_temperature;BME280_humidity;BME280_pressure;Samples;Min_cycle;Max_cycle;Signal;HPM_P1;HPM_P2
2021/06/05 00:01:09;;;;;;;9.40;5.17;;;14.00;99.90;;;;;;5053540;28;20646;-85
2021/06/05 00:03:34;;;;;;;13.87;6.20;;;14.00;99.90;;;;;;5070684;28;20197;-85
2021/06/05 00:06:01;;;;;;;10.03;5.17;;;13.90;99.90;;;;;;5052886;28;20245;-86
2021/06/05 00:08:29;;;;;;;20.43;7.83;;;13.90;99.90;;;;;;5069775;28;20631;-85
2021/06/05 00:11:00;;;;;;;9.83;5.30;;;14.00;99.90;;;;;;5069016;28;20213;-85
2021/06/05 00:13:35;;;;;;;13.93;5.37;;;14.00;99.90;;;;;;5067855;28;20209;-87
2021/06/05 00:16:03;;;;;;;40.87;6.43;;;14.00;99.90;;;;;;5068818;28;20982;-87
2021/06/05 00:18:30;;;;;;;16.07;6.77;;;14.00;99.90;;;;;;5069455;28;20197;-88
2021/06/05 00:20:56;;;;;;;12.77;5.83;;;14.00;99.90;;;;;;5067785;28;20304;-85
2021/06/05 00:23:24;;;;;;;10.63;6.07;;;14.00;99.90;;;;;;5067547;28;20678;-87
2021/06/05 00:25:51;;;;;;;11.87;6.50;;;14.00;99.90;;;;;;5064344;28;20205;-89
2021/06/05 00:28:18;;;;;;;28.17;6.00;;;14.00;99.90;;;;;;5065188;28;20177;-87
2021/06/05 00:30:44;;;;;;;59.33;6.87;;;14.00;99.90;;;;;;5033628;28;20173;-84
2021/06/05 00:33:10;;;;;;;21.83;5.00;;;14.00;99.90;;;;;;5051122;28;20213;-85
2021/06/05 00:35:37;;;;;;;14.53;5.07;;;14.00;99.90;;;;;;5066409;28;20711;-85
2021/06/05 00:38:04;;;;;;;11.20;5.33;;;14.00;99.90;;;;;;5065917;28;20221;-85
2021/06/05 00:40:34;;;;;;;10.90;4.77;;;14.00;99.90;;;;;;5065425;28;20205;-89
2021/06/05 00:43:00;;;;;;;14.53;7.47;;;14.00;99.90;;;;;;5087419;28;20891;-85
2021/06/05 00:45:29;;;;;;;36.17;6.50;;;14.10;99.90;;;;;;5045614;28;20240;-85
2021/06/05 00:47:57;;;;;;;18.67;6.23;;;14.10;99.90;;;;;;5080451;28;20688;-86
2021/06/05 00:50:24;;;;;;;22.63;6.37;;;14.10;99.90;;;;;;5063611;28;20207;-85
2021/06/05 00:52:50;;;;;;;36.67;7.40;;;14.10;99.90;;;;;;5078186;28;20277;-85
2021/06/05 00:55:18;;;;;;;16.57;6.23;;;14.10;99.90;;;;;;5081373;28;20220;-86
2021/06/05 00:57:44;;;;;;;32.37;6.60;;;14.20;99.90;;;;;;5080199;28;20180;-86
2021/06/05 01:00:23;;;;;;;19.40;6.50;;;14.10;99.90;;;;;;5034709;28;20739;-89
2021/06/05 01:02:49;;;;;;;29.63;6.53;;;14.10;99.90;;;;;;5078062;28;20215;-87
2021/06/05 01:05:18;;;;;;;22.83;6.00;;;14.10;99.90;;;;;;5061984;28;20216;-86
2021/06/05 01:07:45;;;;;;;38.37;6.40;;;14.10;99.90;;;;;;5076538;28;20223;-89
2021/06/05 01:10:19;;;;;;;18.93;6.20;;;14.00;99.90;;;;;;5060302;28;20188;-86
2021/06/05 01:13:21;;;;;;;26.87;6.03;;;14.10;99.90;;;;;;5098988;28;20179;-86
2021/06/05 01:15:57;;;;;;;14.03;7.17;;;14.10;99.90;;;;;;5086442;28;20212;-87
2021/06/05 01:18:31;;;;;;;25.67;6.97;;;14.20;99.90;;;;;;5075022;28;20219;-86
2021/06/05 01:21:07;;;;;;;15.17;6.47;;;14.20;99.90;;;;;;5074699;28;20728;-86
2021/06/05 01:23:46;;;;;;;15.63;6.03;;;14.20;99.90;;;;;;5076868;28;20228;-86
2021/06/05 01:26:24;;;;;;;32.53;5.53;;;14.20;99.90;;;;;;5095777;28;20220;-87
2021/06/05 01:29:12;;;;;;;26.60;6.17;;;14.10;99.90;;;;;;5075765;28;20306;-86
2021/06/05 01:31:42;;;;;;;14.97;5.47;;;14.20;99.90;;;;;;5077493;28;20307;-86
2021/06/05 01:34:09;;;;;;;31.70;6.37;;;14.10;99.90;;;;;;5076193;28;20291;-87
2021/06/05 01:36:40;;;;;;;15.93;5.80;;;14.10;99.90;;;;;;5061848;28;20180;-86
2021/06/05 01:39:09;;;;;;;76.20;7.00;;;14.10;99.90;;;;;;5093533;28;20216;-87
2021/06/05 01:41:38;;;;;;;13.53;7.70;;;14.20;99.90;;;;;;5096224;28;21379;-87
2021/06/05 01:44:05;;;;;;;23.77;9.07;;;14.20;99.90;;;;;;5079073;28;20224;-87
2021/06/05 01:46:35;;;;;;;15.97;6.03;;;14.20;99.90;;;;;;5062056;28;20677;-86
2021/06/05 01:49:01;;;;;;;9.30;5.97;;;14.10;99.90;;;;;;5091974;28;20299;-89
2021/06/05 01:51:28;;;;;;;10.47;5.50;;;14.10;99.90;;;;;;5095892;28;20578;-86
2021/06/05 01:53:58;;;;;;;8.90;4.40;;;14.10;99.90;;;;;;5076818;28;20531;-87
2021/06/05 01:56:34;;;;;;;5.43;4.60;;;14.00;99.90;;;;;;5076496;28;20704;-89
2021/06/05 01:59:00;;;;;;;8.00;5.13;;;14.10;99.90;;;;;;5096103;28;20770;-87
2021/06/05 02:01:27;;;;;;;11.47;5.83;;;14.00;99.90;;;;;;5058757;28;20219;-89
2021/06/05 02:03:53;;;;;;;11.63;6.37;;;14.00;99.90;;;;;;5062925;28;20195;-89
2021/06/05 02:06:20;;;;;;;10.43;6.70;;;14.00;99.90;;;;;;5059130;28;20258;-88
2021/06/05 02:08:46;;;;;;;10.93;6.00;;;14.00;99.90;;;;;;5060521;28;20244;-87
2021/06/05 02:11:15;;;;;;;10.00;4.87;;;14.00;99.90;;;;;;5044518;28;20239;-87
2021/06/05 02:13:47;;;;;;;16.23;5.60;;;14.00;99.90;;;;;;5077127;28;20216;-86
2021/06/05 02:16:20;;;;;;;15.50;5.83;;;14.10;99.90;;;;;;5076744;28;20207;-86
2021/06/05 02:18:50;;;;;;;8.30;4.70;;;14.00;99.90;;;;;;5076897;28;20193;-86
2021/06/05 02:21:19;;;;;;;10.73;5.80;;;14.00;99.90;;;;;;5076596;28;20219;-86
2021/06/05 02:23:59;;;;;;;13.13;6.63;;;14.00;99.90;;;;;;5073691;28;20870;-86
2021/06/05 02:26:26;;;;;;;10.70;5.57;;;14.10;99.90;;;;;;5075489;28;20218;-86
2021/06/05 02:28:56;;;;;;;6.37;4.23;;;14.10;99.90;;;;;;5076661;28;20584;-87
2021/06/05 02:31:23;;;;;;;38.47;5.40;;;14.00;99.90;;;;;;5075034;28;20231;-86
2021/06/05 02:33:50;;;;;;;5.10;3.60;;;14.00;99.90;;;;;;5077076;28;20191;-86
2021/06/05 02:36:17;;;;;;;6.73;5.07;;;13.90;99.90;;;;;;5058069;28;20546;-89
2021/06/05 02:38:46;;;;;;;8.80;5.00;;;14.00;99.90;;;;;;5061547;28;21008;-85
2021/06/05 02:41:14;;;;;;;5.40;4.20;;;14.00;99.90;;;;;;5075872;28;20657;-86
2021/06/05 02:43:42;;;;;;;6.73;5.47;;;14.00;99.90;;;;;;5074977;28;20307;-86
2021/06/05 02:46:15;;;;;;;8.03;5.47;;;14.10;99.90;;;;;;5077195;28;20216;-86
2021/06/05 02:48:56;;;;;;;10.83;5.97;;;14.10;99.90;;;;;;5078968;28;20222;-86
2021/06/05 02:51:31;;;;;;;8.87;4.87;;;14.10;99.90;;;;;;5075928;28;20211;-87
2021/06/05 02:53:56;;;;;;;9.90;5.50;;;14.10;99.90;;;;;;5077066;28;20253;-86
2021/06/05 02:56:22;;;;;;;8.77;4.93;;;14.20;99.90;;;;;;5043761;28;20704;-89
2021/06/05 02:58:49;;;;;;;10.30;6.17;;;14.20;99.90;;;;;;5058040;28;20605;-86
2021/06/05 03:01:15;;;;;;;8.20;5.57;;;14.10;99.90;;;;;;5075188;28;20246;-86
2021/06/05 03:03:41;;;;;;;7.13;5.40;;;14.10;99.90;;;;;;5078906;28;20276;-86
2021/06/05 03:06:08;;;;;;;6.73;5.00;;;14.10;99.90;;;;;;5078223;28;20215;-87
2021/06/05 03:08:36;;;;;;;9.10;5.53;;;14.10;99.90;;;;;;5096296;28;20212;-87
2021/06/05 03:11:05;;;;;;;12.10;5.53;;;14.10;99.90;;;;;;5079108;28;20673;-86
2021/06/05 03:13:31;;;;;;;10.50;6.00;;;14.20;99.90;;;;;;5083824;28;20211;-87
2021/06/05 03:15:57;;;;;;;8.40;5.50;;;14.10;99.90;;;;;;5083428;28;20629;-86
2021/06/05 03:18:24;;;;;;;12.50;5.73;;;14.20;99.90;;;;;;5043109;28;20232;-87
2021/06/05 03:20:54;;;;;;;10.67;5.33;;;14.10;99.90;;;;;;5064217;28;20267;-89
2021/06/05 03:23:22;;;;;;;11.03;6.43;;;14.20;99.90;;;;;;5097863;28;20216;-87
2021/06/05 03:25:48;;;;;;;9.20;5.30;;;14.20;99.90;;;;;;5080623;28;20220;-86
2021/06/05 03:28:16;;;;;;;8.67;5.47;;;14.10;99.90;;;;;;5076683;28;20196;-89
2021/06/05 03:30:42;;;;;;;11.03;5.10;;;14.20;99.90;;;;;;5097657;28;20184;-86
2021/06/05 03:33:08;;;;;;;10.50;5.73;;;14.20;99.90;;;;;;5062666;28;20258;-87
2021/06/05 03:35:34;;;;;;;12.07;5.97;;;14.30;99.90;;;;;;5077875;28;20908;-86
2021/06/05 03:38:00;;;;;;;14.50;5.73;;;14.30;99.90;;;;;;5062359;28;20216;-88
2021/06/05 03:40:30;;;;;;;5.53;3.73;;;14.30;99.90;;;;;;5080718;28;20217;-85
2021/06/05 03:42:56;;;;;;;4.97;3.67;;;14.30;99.90;;;;;;5082563;28;20220;-86
2021/06/05 03:45:22;;;;;;;5.77;3.07;;;14.20;99.90;;;;;;5060261;28;20672;-86
2021/06/05 03:47:49;;;;;;;9.67;5.13;;;14.10;99.90;;;;;;5061859;28;20287;-86
2021/06/05 03:50:18;;;;;;;6.63;4.13;;;14.20;99.90;;;;;;5062212;28;20212;-86
2021/06/05 03:52:44;;;;;;;9.87;4.60;;;14.20;99.90;;;;;;5079644;28;20200;-88
2021/06/05 03:55:12;;;;;;;4.87;4.03;;;14.30;99.90;;;;;;5062601;28;20185;-86
2021/06/05 03:57:38;;;;;;;6.77;3.77;;;14.20;99.90;;;;;;5079441;28;21193;-85
2021/06/05 04:00:11;;;;;;;8.97;5.00;;;14.20;99.90;;;;;;5078895;28;20723;-86
2021/06/05 04:02:36;;;;;;;10.57;5.23;;;14.20;99.90;;;;;;5080316;28;20246;-88
2021/06/05 04:05:03;;;;;;;9.50;5.37;;;14.30;99.90;;;;;;5079486;28;20224;-89
2021/06/05 04:07:29;;;;;;;10.07;4.97;;;14.30;99.90;;;;;;5081971;28;20280;-86
2021/06/05 04:09:55;;;;;;;5.17;4.07;;;14.30;99.90;;;;;;5066504;28;20191;-85
2021/06/05 04:12:24;;;;;;;6.07;4.13;;;14.30;99.90;;;;;;5063827;28;20223;-86
2021/06/05 04:14:50;;;;;;;7.20;4.87;;;14.20;99.90;;;;;;5060841;28;20243;-85
2021/06/05 04:17:18;;;;;;;9.83;6.47;;;14.30;99.90;;;;;;5045020;28;20250;-86
2021/06/05 04:19:44;;;;;;;8.63;5.93;;;14.30;99.90;;;;;;5077000;28;20691;-85
2021/06/05 04:22:10;;;;;;;8.70;4.63;;;14.30;99.90;;;;;;5044309;28;20188;-86
2021/06/05 04:24:37;;;;;;;6.13;3.90;;;14.20;99.90;;;;;;5048947;28;20207;-84
2021/06/05 04:27:05;;;;;;;9.93;4.00;;;14.20;99.90;;;;;;5080473;28;20222;-86
2021/06/05 04:29:31;;;;;;;12.93;6.20;;;14.20;99.90;;;;;;5076726;28;20223;-86
2021/06/05 04:31:57;;;;;;;10.83;5.70;;;14.20;99.90;;;;;;5062644;28;20689;-85
2021/06/05 04:34:23;;;;;;;7.97;5.17;;;14.20;99.90;;;;;;5080576;28;20215;-86
2021/06/05 04:36:53;;;;;;;11.53;5.07;;;14.20;99.90;;;;;;5062185;28;20184;-86
2021/06/05 04:39:19;;;;;;;4.90;4.17;;;14.20;99.90;;;;;;5077697;28;20247;-86
2021/06/05 04:41:45;;;;;;;7.40;4.90;;;14.20;99.90;;;;;;5044341;28;20216;-86
2021/06/05 04:44:11;;;;;;;10.20;5.70;;;14.20;99.90;;;;;;5061561;28;20256;-86
2021/06/05 04:46:37;;;;;;;9.27;5.80;;;14.20;99.90;;;;;;5060383;28;20218;-86
2021/06/05 04:49:04;;;;;;;12.37;6.37;;;14.30;99.90;;;;;;5079716;28;20201;-86
2021/06/05 04:51:30;;;;;;;6.13;4.03;;;14.30;99.90;;;;;;5061886;28;20188;-85
2021/06/05 04:53:57;;;;;;;8.63;5.27;;;14.30;99.90;;;;;;5078417;28;20699;-86
2021/06/05 04:56:31;;;;;;;4.80;4.17;;;14.30;99.90;;;;;;5097750;28;20260;-85
2021/06/05 04:58:57;;;;;;;10.70;6.47;;;14.20;99.90;;;;;;5097204;28;20217;-85
2021/06/05 05:01:23;;;;;;;6.87;4.40;;;14.20;99.90;;;;;;5062702;28;20217;-86
2021/06/05 05:03:48;;;;;;;9.23;5.43;;;14.10;99.90;;;;;;5046195;28;20253;-84
2021/06/05 05:06:14;;;;;;;7.77;3.40;;;14.20;99.90;;;;;;5060504;28;20684;-85
2021/06/05 05:08:40;;;;;;;3.73;3.20;;;14.10;99.90;;;;;;5058039;28;20231;-87
2021/06/05 05:11:06;;;;;;;5.53;3.93;;;14.10;99.90;;;;;;5046663;28;20572;-85
2021/06/05 05:13:34;;;;;;;11.50;5.43;;;14.10;99.90;;;;;;5076848;28;20220;-88
2021/06/05 05:16:02;;;;;;;4.73;3.33;;;14.10;99.90;;;;;;5076742;28;20242;-82
2021/06/05 05:18:28;;;;;;;7.03;3.70;;;14.10;99.90;;;;;;5074768;28;20212;-83
2021/06/05 05:20:55;;;;;;;3.90;3.17;;;14.00;99.90;;;;;;5059649;28;20257;-85
2021/06/05 05:23:25;;;;;;;6.23;4.83;;;14.00;99.90;;;;;;5057574;28;20309;-88
2021/06/05 05:25:51;;;;;;;7.77;4.73;;;14.00;99.90;;;;;;5095289;28;20212;-86
2021/06/05 05:28:17;;;;;;;5.43;4.83;;;14.00;99.90;;;;;;5058963;28;20213;-85
2021/06/05 05:30:47;;;;;;;4.20;2.30;;;14.00;99.90;;;;;;5058331;28;20620;-84
2021/06/05 05:33:13;;;;;;;12.33;6.30;;;14.00;99.90;;;;;;5074222;28;20685;-84
2021/06/05 05:35:39;;;;;;;10.37;4.23;;;14.00;99.90;;;;;;5057674;28;20322;-86
2021/06/05 05:38:06;;;;;;;5.00;3.57;;;14.00;99.90;;;;;;5075415;28;20247;-83
2021/06/05 05:40:33;;;;;;;9.00;4.97;;;13.90;99.90;;;;;;5073940;28;20208;-82
2021/06/05 05:42:58;;;;;;;9.00;4.47;;;14.00;99.90;;;;;;5076014;28;20719;-84
2021/06/05 05:45:24;;;;;;;6.90;4.73;;;14.00;99.90;;;;;;5043627;28;20220;-84
2021/06/05 05:47:51;;;;;;;9.83;4.40;;;14.00;99.90;;;;;;5075737;28;20212;-84
2021/06/05 05:50:20;;;;;;;9.27;4.90;;;14.00;99.90;;;;;;5090326;28;20212;-84
2021/06/05 05:52:45;;;;;;;8.80;5.80;;;14.10;99.90;;;;;;5073766;28;20212;-84
2021/06/05 05:55:12;;;;;;;7.47;5.07;;;14.10;99.90;;;;;;5040280;28;20181;-84
2021/06/05 05:57:38;;;;;;;11.23;4.60;;;14.10;99.90;;;;;;5058948;28;20176;-83
2021/06/05 06:00:08;;;;;;;28.27;6.33;;;14.20;99.90;;;;;;5058848;28;20295;-83
2021/06/05 06:02:33;;;;;;;5.93;4.73;;;14.20;99.90;;;;;;5078394;28;20218;-83
2021/06/05 06:04:59;;;;;;;2.73;2.50;;;14.20;99.90;;;;;;5061431;28;20318;-83
2021/06/05 06:07:25;;;;;;;3.00;2.23;;;14.20;99.90;;;;;;5041782;28;20212;-87
2021/06/05 06:09:50;;;;;;;5.53;2.93;;;14.20;99.90;;;;;;5058553;28;20196;-85
2021/06/05 06:12:16;;;;;;;6.00;3.73;;;14.10;99.90;;;;;;5043794;28;20302;-85
2021/06/05 06:14:42;;;;;;;11.03;3.50;;;14.10;99.90;;;;;;5040979;28;20676;-84
2021/06/05 06:17:08;;;;;;;7.83;5.27;;;14.10;99.90;;;;;;5042639;28;20281;-84
2021/06/05 06:19:33;;;;;;;6.00;4.23;;;14.10;99.90;;;;;;5076004;28;20281;-85
2021/06/05 06:21:59;;;;;;;6.80;4.90;;;14.10;99.90;;;;;;5059339;28;20184;-85
2021/06/05 06:24:25;;;;;;;10.23;5.43;;;14.20;99.90;;;;;;5058953;28;20300;-88
2021/06/05 06:26:51;;;;;;;7.40;6.27;;;14.20;99.90;;;;;;5042180;28;20253;-85
2021/06/05 06:29:19;;;;;;;7.47;4.80;;;14.30;99.90;;;;;;5041830;28;20222;-86
2021/06/05 06:31:47;;;;;;;5.50;4.23;;;14.20;99.90;;;;;;5040991;28;20707;-85
2021/06/05 06:34:14;;;;;;;4.97;3.00;;;14.10;99.90;;;;;;5061200;28;20585;-87
2021/06/05 06:36:45;;;;;;;3.83;2.30;;;14.00;99.90;;;;;;5060038;28;20549;-84
2021/06/05 06:39:14;;;;;;;3.20;2.47;;;14.00;99.90;;;;;;5084469;28;20231;-85
2021/06/05 06:41:41;;;;;;;6.63;3.70;;;14.10;99.90;;;;;;5055332;28;20309;-84
2021/06/05 06:44:07;;;;;;;4.30;2.77;;;14.10;99.90;;;;;;5075570;28;20245;-84
2021/06/05 06:46:40;;;;;;;3.77;3.07;;;14.10;99.90;;;;;;5074460;28;20220;-86
2021/06/05 06:49:07;;;;;;;5.47;3.47;;;14.00;99.90;;;;;;5076306;28;20219;-87
2021/06/05 06:51:36;;;;;;;3.50;3.00;;;14.00;99.90;;;;;;5061656;28;20191;-85
2021/06/05 06:54:03;;;;;;;2.50;2.07;;;14.00;99.90;;;;;;5060375;28;20669;-88
2021/06/05 06:56:29;;;;;;;5.07;2.63;;;14.00;99.90;;;;;;5058085;28;20222;-86
2021/06/05 06:58:55;;;;;;;5.77;2.40;;;14.00;99.90;;;;;;5057243;28;20237;-87
2021/06/05 07:01:21;;;;;;;6.67;2.93;;;14.10;99.90;;;;;;5056865;28;20227;-87
2021/06/05 07:03:47;;;;;;;4.53;3.30;;;14.20;99.90;;;;;;5078335;28;20184;-86
2021/06/05 07:06:15;;;;;;;10.37;3.17;;;14.20;99.90;;;;;;5071602;28;20246;-88
2021/06/05 07:08:42;;;;;;;2.33;2.00;;;14.20;99.90;;;;;;5071964;28;21279;-84
2021/06/05 07:11:30;;;;;;;3.60;1.77;;;14.30;99.90;;;;;;5039665;28;20215;-87
2021/06/05 07:13:57;;;;;;;2.40;1.50;;;14.30;99.90;;;;;;5075446;28;20323;-88
2021/06/05 07:16:24;;;;;;;1.93;1.30;;;14.40;99.90;;;;;;5057497;28;20274;-87
2021/06/05 07:18:50;;;;;;;2.27;1.87;;;14.50;99.90;;;;;;5095346;28;20208;-90
2021/06/05 07:21:17;;;;;;;1.53;1.23;;;14.60;99.90;;;;;;5092484;28;20286;-90
2021/06/05 07:23:43;;;;;;;1.73;1.30;;;14.70;99.90;;;;;;5093696;28;20203;-86
2021/06/05 07:26:20;;;;;;;2.57;1.47;;;14.80;99.90;;;;;;5074973;28;20251;-88
2021/06/05 07:28:50;;;;;;;2.97;2.27;;;14.80;99.90;;;;;;5072581;28;20215;-88
2021/06/05 07:31:38;;;;;;;3.37;2.17;;;14.80;99.90;;;;;;5074975;28;20204;-88
2021/06/05 07:34:04;;;;;;;3.10;2.80;;;14.90;99.90;;;;;;5092787;28;20200;-89
2021/06/05 07:36:34;;;;;;;4.97;3.20;;;15.20;99.90;;;;;;5060564;28;20633;-90
2021/06/05 07:39:01;;;;;;;5.07;3.37;;;15.20;99.90;;;;;;5076912;28;20213;-91
2021/06/05 07:41:26;;;;;;;4.93;3.37;;;15.50;99.90;;;;;;5057236;28;20209;-90
2021/06/05 07:43:52;;;;;;;6.17;3.63;;;15.70;99.90;;;;;;5038851;28;20235;-90
2021/06/05 07:46:18;;;;;;;7.20;4.27;;;16.00;99.90;;;;;;5074111;28;20190;-94
2021/06/05 07:48:44;;;;;;;5.13;4.37;;;16.20;99.90;;;;;;5060082;28;20193;-93
2021/06/05 07:51:10;;;;;;;6.53;4.63;;;16.20;99.90;;;;;;5041724;28;20326;-94
2021/06/05 07:53:36;;;;;;;6.87;4.63;;;16.50;99.90;;;;;;5057276;28;20297;-94
2021/06/05 07:56:03;;;;;;;7.13;4.50;;;16.40;99.90;;;;;;5039023;28;20336;-93
2021/06/05 07:58:29;;;;;;;5.00;3.80;;;16.40;99.90;;;;;;5057562;28;20222;-92
2021/06/05 08:00:55;;;;;;;5.10;3.83;;;16.50;99.90;;;;;;5058972;28;20217;-95
2021/06/05 08:03:23;;;;;;;6.13;3.77;;;16.50;99.90;;;;;;5029993;28;20266;-92
2021/06/05 08:05:48;;;;;;;5.67;3.57;;;16.40;99.90;;;;;;5057933;28;20213;-91
2021/06/05 08:08:15;;;;;;;4.30;3.20;;;16.30;99.90;;;;;;5054827;28;20201;-88
2021/06/05 08:10:43;;;;;;;4.00;3.67;;;16.60;99.90;;;;;;5073333;28;20210;-90
2021/06/05 08:13:09;;;;;;;4.80;2.73;;;16.20;99.90;;;;;;5057183;28;20205;-86
2021/06/05 08:15:39;;;;;;;4.93;3.97;;;16.30;99.90;;;;;;5057082;28;20187;-87
2021/06/05 08:18:06;;;;;;;6.27;4.27;;;16.40;99.90;;;;;;5056626;28;20276;-88
2021/06/05 08:20:36;;;;;;;7.77;4.80;;;16.30;99.90;;;;;;5056344;28;20222;-89
2021/06/05 08:23:03;;;;;;;7.87;5.77;;;16.50;99.90;;;;;;5071813;28;20560;-87
2021/06/05 08:25:29;;;;;;;11.63;5.40;;;16.70;99.90;;;;;;5054726;28;20225;-88
2021/06/05 08:27:56;;;;;;;8.43;5.90;;;16.90;99.90;;;;;;5056547;28;20569;-88
2021/06/05 08:30:29;;;;;;;9.10;4.43;;;17.50;99.90;;;;;;5054062;28;20249;-87
2021/06/05 08:32:55;;;;;;;7.33;5.57;;;17.40;99.90;;;;;;5053741;28;20280;-88
2021/06/05 08:35:21;;;;;;;14.50;8.40;;;17.80;99.90;;;;;;5056334;28;20321;-89
2021/06/05 08:37:47;;;;;;;12.67;7.80;;;18.70;99.90;;;;;;5055602;28;20225;-87
2021/06/05 08:40:17;;;;;;;14.03;9.77;;;19.60;99.90;;;;;;5055938;28;20218;-86
2021/06/05 08:42:50;;;;;;;8.87;5.90;;;20.70;99.90;;;;;;5058725;28;20224;-87
2021/06/05 08:45:21;;;;;;;10.17;7.37;;;21.60;99.90;;;;;;5058991;28;20712;-89
2021/06/05 08:47:46;;;;;;;8.67;7.37;;;21.80;99.90;;;;;;5075835;28;20271;-91
2021/06/05 08:50:19;;;;;;;12.03;8.60;;;21.80;99.90;;;;;;5044633;28;20737;-92
2021/06/05 08:53:03;;;;;;;10.00;7.20;;;22.90;99.90;;;;;;5067504;28;20223;-95
2021/06/05 08:55:51;;;;;;;14.40;7.80;;;22.90;99.90;;;;;;5077096;28;20216;-94
2021/06/05 08:58:35;;;;;;;7.93;6.87;;;21.80;99.90;;;;;;5071513;28;20165;-91
2021/06/05 09:01:07;;;;;;;9.27;7.60;;;20.90;99.90;;;;;;5075071;28;20189;-90
2021/06/05 09:03:36;;;;;;;11.13;7.63;;;20.90;99.90;;;;;;5077791;28;20174;-91
2021/06/05 09:06:15;;;;;;;7.67;6.73;;;20.90;99.90;;;;;;5074221;28;20209;-88
2021/06/05 09:08:41;;;;;;;12.30;7.77;;;20.90;99.90;;;;;;5076925;28;20906;-88
2021/06/05 09:11:08;;;;;;;8.70;6.77;;;21.00;99.90;;;;;;5057277;28;20227;-89
2021/06/05 09:13:34;;;;;;;11.53;7.50;;;20.90;99.90;;;;;;5072784;28;20209;-89
2021/06/05 09:16:18;;;;;;;8.83;6.83;;;21.70;99.90;;;;;;5057370;28;20283;-88
2021/06/05 09:18:49;;;;;;;7.37;5.90;;;21.00;99.90;;;;;;5087428;28;20228;-88
2021/06/05 09:21:31;;;;;;;8.40;6.60;;;19.90;99.90;;;;;;5072252;28;20289;-89
2021/06/05 09:24:17;;;;;;;9.17;7.83;;;19.70;99.90;;;;;;5075723;28;20209;-88
2021/06/05 09:27:01;;;;;;;13.37;8.63;;;19.70;99.90;;;;;;5072747;28;20291;-88
2021/06/05 09:29:28;;;;;;;13.40;8.43;;;20.40;99.90;;;;;;5074839;28;20224;-89
2021/06/05 09:32:10;;;;;;;10.17;7.90;;;20.80;99.90;;;;;;5072702;28;20213;-87
2021/06/05 09:34:47;;;;;;;13.83;8.47;;;21.40;99.90;;;;;;5072480;28;20208;-87
2021/06/05 09:37:42;;;;;;;12.63;9.13;;;21.60;99.90;;;;;;5073889;28;20200;-89
2021/06/05 09:40:08;;;;;;;16.13;10.17;;;21.00;99.90;;;;;;5074276;28;20570;-88
2021/06/05 09:42:41;;;;;;;13.27;9.60;;;20.80;99.90;;;;;;5071663;28;20213;-89
2021/06/05 09:45:33;;;;;;;14.67;9.33;;;20.60;99.90;;;;;;5062777;28;20224;-89
2021/06/05 09:48:27;;;;;;;13.40;9.23;;;20.30;99.90;;;;;;5062458;28;20213;-88
2021/06/05 09:50:57;;;;;;;15.37;10.37;;;20.10;99.90;;;;;;5053612;28;20268;-86
2021/06/05 09:53:33;;;;;;;13.20;10.20;;;19.50;99.90;;;;;;5063138;28;20312;-87
2021/06/05 09:56:02;;;;;;;15.00;10.97;;;19.80;99.90;;;;;;5063414;28;20224;-86
2021/06/05 09:58:40;;;;;;;16.53;11.50;;;19.60;99.90;;;;;;5063467;28;20220;-88
2021/06/05 10:01:25;;;;;;;13.83;9.77;;;19.70;99.90;;;;;;5061079;28;20185;-86
2021/06/05 10:04:17;;;;;;;15.27;10.93;;;19.40;99.90;;;;;;5063128;28;20213;-86
2021/06/05 10:06:48;;;;;;;13.90;10.03;;;19.30;99.90;;;;;;5062792;28;20223;-87
2021/06/05 10:09:25;;;;;;;14.67;11.07;;;19.00;99.90;;;;;;5062262;28;20220;-86
2021/06/05 10:12:09;;;;;;;12.93;10.00;;;18.70;99.90;;;;;;5062145;28;20217;-87
2021/06/05 10:14:38;;;;;;;15.07;10.90;;;18.60;99.90;;;;;;5061481;28;20236;-86
2021/06/05 10:17:22;;;;;;;15.63;11.93;;;18.40;99.90;;;;;;5061901;28;21339;-88
2021/06/05 10:19:57;;;;;;;17.53;11.47;;;18.10;99.90;;;;;;5059945;28;20229;-87
2021/06/05 10:22:25;;;;;;;17.17;11.10;;;18.00;99.90;;;;;;5062038;28;20380;-87
2021/06/05 10:24:57;;;;;;;19.20;12.17;;;18.00;99.90;;;;;;5047502;28;20557;-88
2021/06/05 10:27:37;;;;;;;16.83;12.27;;;18.00;99.90;;;;;;5062014;28;20214;-88
2021/06/05 10:30:08;;;;;;;16.27;12.10;;;18.00;99.90;;;;;;5061765;28;20297;-87
2021/06/05 10:32:43;;;;;;;15.60;11.33;;;18.00;99.90;;;;;;5061139;28;20209;-87
2021/06/05 10:35:29;;;;;;;15.63;10.93;;;17.80;99.90;;;;;;5045507;28;20697;-88
2021/06/05 10:38:06;;;;;;;15.93;12.17;;;17.70;99.90;;;;;;5062490;28;20278;-88
2021/06/05 10:40:32;;;;;;;18.17;10.20;;;17.50;99.90;;;;;;5063735;28;20236;-89
2021/06/05 10:42:58;;;;;;;16.93;11.40;;;17.30;99.90;;;;;;5051974;28;20232;-89
2021/06/05 10:45:37;;;;;;;16.47;11.77;;;17.20;99.90;;;;;;5054866;28;20213;-90
2021/06/05 10:48:26;;;;;;;17.20;12.07;;;17.10;99.90;;;;;;5056466;28;20231;-89
2021/06/05 10:51:12;;;;;;;19.50;11.97;;;17.00;99.90;;;;;;5056083;28;20763;-87
2021/06/05 10:53:45;;;;;;;21.30;12.60;;;17.10;99.90;;;;;;5061702;28;20616;-87
2021/06/05 10:56:14;;;;;;;23.30;12.50;;;17.00;99.90;;;;;;5060833;28;20229;-86
2021/06/05 10:59:00;;;;;;;22.80;14.63;;;16.90;99.90;;;;;;5061152;28;20264;-89
2021/06/05 11:01:29;;;;;;;18.97;12.30;;;17.10;99.90;;;;;;5061144;28;20220;-88
2021/06/05 11:04:01;;;;;;;18.43;11.90;;;17.10;99.90;;;;;;5062690;28;20608;-88
2021/06/05 11:06:55;;;;;;;21.43;11.57;;;16.90;99.90;;;;;;5018583;28;20304;-87
2021/06/05 11:09:29;;;;;;;21.77;13.47;;;16.90;99.90;;;;;;5065183;28;20208;-87
2021/06/05 11:12:15;;;;;;;25.90;14.83;;;17.00;99.90;;;;;;5062690;28;20200;-88
2021/06/05 11:14:44;;;;;;;25.57;14.70;;;17.10;99.90;;;;;;5059952;28;20235;-90
2021/06/05 11:17:31;;;;;;;23.90;13.37;;;17.10;99.90;;;;;;5063063;28;20323;-90
2021/06/05 11:20:04;;;;;;;24.80;15.47;;;17.10;99.90;;;;;;5061318;28;20224;-87
2021/06/05 11:22:51;;;;;;;18.80;12.90;;;17.10;99.90;;;;;;5063121;28;20248;-90
2021/06/05 11:25:17;;;;;;;20.13;13.47;;;17.10;99.90;;;;;;5061786;28;20228;-88
2021/06/05 11:27:46;;;;;;;21.87;13.60;;;17.10;99.90;;;;;;5054196;28;20229;-87
2021/06/05 11:30:21;;;;;;;25.67;12.77;;;17.20;99.90;;;;;;5056059;28;20740;-88
2021/06/05 11:33:01;;;;;;;23.07;13.03;;;17.10;99.90;;;;;;5073291;28;20221;-89
2021/06/05 11:35:49;;;;;;;20.17;12.93;;;17.10;99.90;;;;;;5067066;28;20227;-90
2021/06/05 11:38:17;;;;;;;21.37;12.80;;;17.10;99.90;;;;;;5078730;28;20213;-89
2021/06/05 11:41:01;;;;;;;22.77;12.30;;;17.10;99.90;;;;;;5067355;28;20709;-89
2021/06/05 11:43:30;;;;;;;16.53;12.10;;;17.00;99.90;;;;;;5060722;28;20276;-88
2021/06/05 11:46:28;;;;;;;21.27;12.53;;;16.90;99.90;;;;;;5058601;28;20728;-89
2021/06/05 11:49:02;;;;;;;21.33;13.03;;;16.90;99.90;;;;;;5056867;28;20592;-88
2021/06/05 11:51:37;;;;;;;23.23;13.63;;;16.90;99.90;;;;;;5057490;28;20182;-89
2021/06/05 11:54:19;;;;;;;23.67;14.30;;;17.00;99.90;;;;;;5058843;28;20211;-89
2021/06/05 11:57:08;;;;;;;25.23;13.77;;;17.00;99.90;;;;;;5059538;28;20770;-89
2021/06/05 11:59:39;;;;;;;25.13;14.30;;;17.10;99.90;;;;;;5056755;28;20229;-90
2021/06/05 12:02:33;;;;;;;18.50;12.27;;;17.20;99.90;;;;;;5054980;28;20213;-88
2021/06/05 12:05:07;;;;;;;22.83;13.73;;;17.30;99.90;;;;;;5056379;28;20263;-89
2021/06/05 12:07:37;;;;;;;21.80;13.23;;;17.40;99.90;;;;;;5054613;28;20217;-90
2021/06/05 12:10:06;;;;;;;17.80;11.67;;;17.30;99.90;;;;;;5056702;28;20213;-88
2021/06/05 12:12:48;;;;;;;18.03;12.80;;;17.20;99.90;;;;;;5054521;28;20181;-89
2021/06/05 12:15:22;;;;;;;20.03;13.67;;;17.10;99.90;;;;;;5055975;28;20249;-90
2021/06/05 12:18:18;;;;;;;27.10;13.70;;;17.10;99.90;;;;;;5053274;28;20237;-89
2021/06/05 12:20:48;;;;;;;18.40;12.43;;;17.00;99.90;;;;;;5055756;28;20236;-90
2021/06/05 12:23:40;;;;;;;17.87;12.20;;;16.90;99.90;;;;;;5054451;28;20248;-89
2021/06/05 12:26:19;;;;;;;21.20;12.97;;;16.90;99.90;;;;;;5038386;28;20209;-87
2021/06/05 12:29:06;;;;;;;28.07;13.40;;;16.90;99.90;;;;;;5055862;28;20221;-85
2021/06/05 12:31:37;;;;;;;22.57;13.23;;;16.90;99.90;;;;;;5055977;28;20214;-87
2021/06/05 12:34:09;;;;;;;24.23;12.67;;;17.00;99.90;;;;;;5053105;28;20232;-86
2021/06/05 12:36:44;;;;;;;24.23;14.37;;;17.00;99.90;;;;;;5055551;28;20197;-88
2021/06/05 12:39:13;;;;;;;21.37;13.60;;;17.10;99.90;;;;;;5055394;28;20198;-88
2021/06/05 12:41:42;;;;;;;25.07;13.40;;;17.20;99.90;;;;;;5054261;28;20218;-87
2021/06/05 12:44:13;;;;;;;23.07;14.43;;;17.20;99.90;;;;;;5067380;28;20224;-87
2021/06/05 12:46:39;;;;;;;27.40;15.13;;;17.30;99.90;;;;;;5062695;28;20209;-87
2021/06/05 12:49:08;;;;;;;24.23;15.97;;;17.30;99.90;;;;;;5063305;28;20321;-86
2021/06/05 12:51:43;;;;;;;22.23;16.13;;;17.40;99.90;;;;;;5064187;28;20203;-87
2021/06/05 12:54:11;;;;;;;22.53;13.07;;;17.50;99.90;;;;;;5064762;28;20181;-88
2021/06/05 12:56:41;;;;;;;23.27;14.13;;;17.70;99.90;;;;;;5063034;28;20589;-87